sensor_id;sensor_type;location;lat;lon;timestamp;pressure;altitude;pressure_sealevel;temperature;humidity
15489;BME280;7846;48.830;9.116;2023-03-03T00:01:58;98056.72;;;5.18;63.29
15489;BME280;7846;48.830;9.116;2023-03-03T00:04:23;98047.47;;;5.14;64.08
15489;BME280;7846;48.830;9.116;2023-03-03T00:06:50;98046.28;;;5.06;63.72
15489;BME280;7846;48.830;9.116;2023-03-03T00:09:15;98061.66;;;4.76;64.77
15489;BME280;7846;48.830;9.116;2023-03-03T00:11:41;98059.78;;;5.00;63.83
15489;BME280;7846;48.830;9.116;2023-03-03T00:14:23;98063.59;;;5.19;64.67
15489;BME280;7846;48.830;9.116;2023-03-03T00:16:50;98059.75;;;4.89;64.76
15489;BME280;7846;48.830;9.116;2023-03-03T00:19:18;98066.38;;;4.82;64.92
15489;BME280;7846;48.830;9.116;2023-03-03T00:21:48;98058.28;;;5.09;64.69
15489;BME280;7846;48.830;9.116;2023-03-03T00:24:18;98053.53;;;5.25;63.38
15489;BME280;7846;48.830;9.116;2023-03-03T00:29:33;98058.16;;;5.10;63.98
15489;BME280;7846;48.830;9.116;2023-03-03T00:32:15;98064.78;;;5.15;63.04
15489;BME280;7846;48.830;9.116;2023-03-03T00:34:43;98062.91;;;5.05;63.86
15489;BME280;7846;48.830;9.116;2023-03-03T00:37:33;98064.78;;;5.03;63.58
15489;BME280;7846;48.830;9.116;2023-03-03T00:40:48;98063.34;;;4.99;64.04
15489;BME280;7846;48.830;9.116;2023-03-03T00:43:23;98056.88;;;4.70;65.46
15489;BME280;7846;48.830;9.116;2023-03-03T00:45:50;98057.16;;;4.89;64.57
15489;BME280;7846;48.830;9.116;2023-03-03T00:50:57;98054.56;;;5.00;64.20
15489;BME280;7846;48.830;9.116;2023-03-03T00:53:28;98056.72;;;4.95;64.75
15489;BME280;7846;48.830;9.116;2023-03-03T00:55:54;98052.28;;;4.73;64.26
15489;BME280;7846;48.830;9.116;2023-03-03T00:58:21;98048.13;;;4.82;64.55
15489;BME280;7846;48.830;9.116;2023-03-03T01:00:48;98051.03;;;4.90;64.08
15489;BME280;7846;48.830;9.116;2023-03-03T01:03:17;98049.34;;;4.89;64.26
15489;BME280;7846;48.830;9.116;2023-03-03T01:05:43;98047.41;;;4.69;64.73
15489;BME280;7846;48.830;9.116;2023-03-03T01:08:09;98049.88;;;4.70;64.61
15489;BME280;7846;48.830;9.116;2023-03-03T01:10:47;98050.06;;;4.91;64.07
15489;BME280;7846;48.830;9.116;2023-03-03T01:13:15;98045.25;;;4.63;64.68
15489;BME280;7846;48.830;9.116;2023-03-03T01:15:42;98036.84;;;4.70;64.41
15489;BME280;7846;48.830;9.116;2023-03-03T01:18:09;98041.75;;;4.75;64.61
15489;BME280;7846;48.830;9.116;2023-03-03T01:20:36;98051.09;;;4.77;63.91
15489;BME280;7846;48.830;9.116;2023-03-03T01:23:02;98050.72;;;4.71;64.25
15489;BME280;7846;48.830;9.116;2023-03-03T01:25:28;98042.78;;;4.61;64.03
15489;BME280;7846;48.830;9.116;2023-03-03T01:27:53;98046.41;;;4.47;64.82
15489;BME280;7846;48.830;9.116;2023-03-03T01:30:20;98051.72;;;4.46;65.52
15489;BME280;7846;48.830;9.116;2023-03-03T01:32:45;98053.91;;;4.63;65.09
15489;BME280;7846;48.830;9.116;2023-03-03T01:35:11;98047.16;;;4.60;64.42
15489;BME280;7846;48.830;9.116;2023-03-03T01:37:37;98052.44;;;4.48;64.93
15489;BME280;7846;48.830;9.116;2023-03-03T01:40:05;98055.00;;;4.72;64.49
15489;BME280;7846;48.830;9.116;2023-03-03T01:42:31;98046.94;;;4.64;64.34
15489;BME280;7846;48.830;9.116;2023-03-03T01:45:12;98052.19;;;4.86;63.98
15489;BME280;7846;48.830;9.116;2023-03-03T01:47:38;98049.78;;;4.36;66.07
15489;BME280;7846;48.830;9.116;2023-03-03T01:50:11;98050.63;;;4.37;66.79
15489;BME280;7846;48.830;9.116;2023-03-03T01:52:40;98045.53;;;4.82;65.26
15489;BME280;7846;48.830;9.116;2023-03-03T01:55:17;98047.31;;;4.81;64.51
15489;BME280;7846;48.830;9.116;2023-03-03T01:57:54;98036.44;;;4.52;65.00
15489;BME280;7846;48.830;9.116;2023-03-03T02:00:22;98041.59;;;4.65;64.84
15489;BME280;7846;48.830;9.116;2023-03-03T02:02:48;98036.03;;;4.70;64.29
15489;BME280;7846;48.830;9.116;2023-03-03T02:05:14;98031.22;;;4.52;64.46
15489;BME280;7846;48.830;9.116;2023-03-03T02:07:41;98024.25;;;4.42;64.96
15489;BME280;7846;48.830;9.116;2023-03-03T02:10:11;98034.16;;;4.36;65.32
15489;BME280;7846;48.830;9.116;2023-03-03T02:12:40;98025.47;;;4.25;65.87
15489;BME280;7846;48.830;9.116;2023-03-03T02:15:21;98017.66;;;4.25;65.90
15489;BME280;7846;48.830;9.116;2023-03-03T02:17:48;98018.69;;;4.22;65.45
15489;BME280;7846;48.830;9.116;2023-03-03T02:28:26;98015.84;;;4.49;64.04
15489;BME280;7846;48.830;9.116;2023-03-03T02:30:56;98021.16;;;4.48;63.98
15489;BME280;7846;48.830;9.116;2023-03-03T02:33:22;98024.69;;;4.35;63.48
15489;BME280;7846;48.830;9.116;2023-03-03T02:35:48;98020.06;;;4.39;64.10
15489;BME280;7846;48.830;9.116;2023-03-03T02:38:31;98028.91;;;4.25;64.54
15489;BME280;7846;48.830;9.116;2023-03-03T02:44:06;98016.53;;;4.40;65.01
15489;BME280;7846;48.830;9.116;2023-03-03T02:46:34;98022.47;;;4.18;65.03
15489;BME280;7846;48.830;9.116;2023-03-03T02:49:01;98025.59;;;4.23;64.92
15489;BME280;7846;48.830;9.116;2023-03-03T02:51:26;98024.06;;;4.32;64.70
15489;BME280;7846;48.830;9.116;2023-03-03T02:53:52;98036.50;;;4.28;64.63
15489;BME280;7846;48.830;9.116;2023-03-03T02:56:18;98035.75;;;4.26;65.03
15489;BME280;7846;48.830;9.116;2023-03-03T02:58:44;98029.31;;;4.08;65.23
15489;BME280;7846;48.830;9.116;2023-03-03T03:01:09;98031.03;;;4.20;65.69
15489;BME280;7846;48.830;9.116;2023-03-03T03:03:35;98036.94;;;4.22;65.38
15489;BME280;7846;48.830;9.116;2023-03-03T03:06:01;98028.38;;;4.09;65.58
15489;BME280;7846;48.830;9.116;2023-03-03T03:08:27;98033.25;;;4.13;66.16
15489;BME280;7846;48.830;9.116;2023-03-03T03:10:53;98039.88;;;4.42;65.08
15489;BME280;7846;48.830;9.116;2023-03-03T03:13:19;98029.91;;;4.35;64.52
15489;BME280;7846;48.830;9.116;2023-03-03T03:15:45;98038.34;;;4.50;64.71
15489;BME280;7846;48.830;9.116;2023-03-03T03:18:11;98032.63;;;4.34;64.92
15489;BME280;7846;48.830;9.116;2023-03-03T03:20:37;98032.84;;;4.07;66.11
15489;BME280;7846;48.830;9.116;2023-03-03T03:23:04;98037.19;;;4.19;65.36
15489;BME280;7846;48.830;9.116;2023-03-03T03:25:29;98035.84;;;4.38;65.05
15489;BME280;7846;48.830;9.116;2023-03-03T03:27:56;98034.91;;;4.50;64.98
15489;BME280;7846;48.830;9.116;2023-03-03T03:30:21;98045.25;;;4.27;64.71
15489;BME280;7846;48.830;9.116;2023-03-03T03:32:47;98036.34;;;4.54;64.85
15489;BME280;7846;48.830;9.116;2023-03-03T03:35:13;98037.69;;;4.82;64.05
15489;BME280;7846;48.830;9.116;2023-03-03T03:37:42;98032.88;;;5.00;63.25
15489;BME280;7846;48.830;9.116;2023-03-03T03:40:09;98040.56;;;4.79;63.85
15489;BME280;7846;48.830;9.116;2023-03-03T03:42:35;98048.06;;;4.95;62.71
15489;BME280;7846;48.830;9.116;2023-03-03T03:45:03;98038.69;;;5.03;62.92
15489;BME280;7846;48.830;9.116;2023-03-03T03:47:28;98048.13;;;4.82;64.06
15489;BME280;7846;48.830;9.116;2023-03-03T03:49:54;98039.16;;;4.86;63.54
15489;BME280;7846;48.830;9.116;2023-03-03T03:52:20;98038.41;;;4.73;64.26
15489;BME280;7846;48.830;9.116;2023-03-03T03:54:46;98041.88;;;4.84;63.67
15489;BME280;7846;48.830;9.116;2023-03-03T03:57:12;98041.50;;;4.89;64.25
15489;BME280;7846;48.830;9.116;2023-03-03T03:59:38;98033.66;;;4.67;64.98
15489;BME280;7846;48.830;9.116;2023-03-03T04:02:03;98044.72;;;4.93;63.62
15489;BME280;7846;48.830;9.116;2023-03-03T04:04:29;98036.44;;;4.99;63.95
15489;BME280;7846;48.830;9.116;2023-03-03T04:06:54;98034.31;;;5.15;63.38
15489;BME280;7846;48.830;9.116;2023-03-03T04:09:21;98038.00;;;5.46;63.02
15489;BME280;7846;48.830;9.116;2023-03-03T04:11:46;98033.84;;;5.32;62.50
15489;BME280;7846;48.830;9.116;2023-03-03T04:14:13;98033.59;;;5.47;62.43
15489;BME280;7846;48.830;9.116;2023-03-03T04:16:39;98031.34;;;5.53;61.83
15489;BME280;7846;48.830;9.116;2023-03-03T04:19:04;98034.63;;;5.67;61.58
15489;BME280;7846;48.830;9.116;2023-03-03T04:21:31;98040.38;;;5.49;61.86
15489;BME280;7846;48.830;9.116;2023-03-03T04:23:57;98042.03;;;5.39;62.86
15489;BME280;7846;48.830;9.116;2023-03-03T04:26:22;98041.78;;;5.53;62.48
15489;BME280;7846;48.830;9.116;2023-03-03T04:28:48;98053.75;;;5.56;62.72
15489;BME280;7846;48.830;9.116;2023-03-03T04:31:13;98053.06;;;5.43;61.98
15489;BME280;7846;48.830;9.116;2023-03-03T04:33:38;98048.28;;;5.70;61.89
15489;BME280;7846;48.830;9.116;2023-03-03T04:36:05;98045.56;;;5.72;62.39
15489;BME280;7846;48.830;9.116;2023-03-03T04:38:31;98044.25;;;5.66;62.06
15489;BME280;7846;48.830;9.116;2023-03-03T04:40:57;98054.84;;;5.65;61.78
15489;BME280;7846;48.830;9.116;2023-03-03T04:43:22;98052.69;;;5.70;62.26
15489;BME280;7846;48.830;9.116;2023-03-03T04:45:48;98054.59;;;5.68;61.68
15489;BME280;7846;48.830;9.116;2023-03-03T04:48:14;98055.78;;;5.75;61.64
15489;BME280;7846;48.830;9.116;2023-03-03T04:50:41;98060.63;;;6.02;62.36
15489;BME280;7846;48.830;9.116;2023-03-03T04:53:07;98058.25;;;5.99;61.35
15489;BME280;7846;48.830;9.116;2023-03-03T04:55:35;98066.00;;;6.21;60.93
15489;BME280;7846;48.830;9.116;2023-03-03T04:58:00;98072.53;;;6.27;60.88
15489;BME280;7846;48.830;9.116;2023-03-03T05:00:26;98070.91;;;6.15;60.25
15489;BME280;7846;48.830;9.116;2023-03-03T05:02:53;98067.56;;;6.24;60.82
15489;BME280;7846;48.830;9.116;2023-03-03T05:05:19;98070.66;;;6.18;61.07
15489;BME280;7846;48.830;9.116;2023-03-03T05:07:44;98077.06;;;6.25;61.19
15489;BME280;7846;48.830;9.116;2023-03-03T05:10:10;98076.00;;;6.48;60.97
15489;BME280;7846;48.830;9.116;2023-03-03T05:12:36;98073.34;;;6.39;61.07
15489;BME280;7846;48.830;9.116;2023-03-03T05:15:01;98076.03;;;6.16;61.41
15489;BME280;7846;48.830;9.116;2023-03-03T05:17:27;98071.66;;;6.38;60.49
15489;BME280;7846;48.830;9.116;2023-03-03T05:19:52;98071.63;;;6.49;60.98
15489;BME280;7846;48.830;9.116;2023-03-03T05:22:21;98061.03;;;6.50;60.87
15489;BME280;7846;48.830;9.116;2023-03-03T05:24:47;98064.38;;;6.73;59.67
15489;BME280;7846;48.830;9.116;2023-03-03T05:27:14;98067.31;;;6.80;59.82
15489;BME280;7846;48.830;9.116;2023-03-03T05:29:39;98072.22;;;6.73;60.22
15489;BME280;7846;48.830;9.116;2023-03-03T05:32:04;98071.75;;;6.89;59.31
15489;BME280;7846;48.830;9.116;2023-03-03T05:34:31;98073.88;;;6.74;60.33
15489;BME280;7846;48.830;9.116;2023-03-03T05:36:56;98078.75;;;6.79;60.95
15489;BME280;7846;48.830;9.116;2023-03-03T05:39:22;98080.25;;;6.82;60.06
15489;BME280;7846;48.830;9.116;2023-03-03T05:41:47;98086.13;;;6.95;59.27
15489;BME280;7846;48.830;9.116;2023-03-03T05:44:14;98094.00;;;6.95;59.51
15489;BME280;7846;48.830;9.116;2023-03-03T05:46:40;98085.56;;;7.12;59.47
15489;BME280;7846;48.830;9.116;2023-03-03T05:49:06;98091.69;;;7.01;60.02
15489;BME280;7846;48.830;9.116;2023-03-03T05:51:32;98093.56;;;6.90;60.03
15489;BME280;7846;48.830;9.116;2023-03-03T05:53:58;98100.28;;;6.92;59.71
15489;BME280;7846;48.830;9.116;2023-03-03T05:56:24;98098.97;;;6.98;60.33
15489;BME280;7846;48.830;9.116;2023-03-03T05:58:49;98107.19;;;6.93;59.64
15489;BME280;7846;48.830;9.116;2023-03-03T06:01:15;98102.34;;;6.89;60.44
15489;BME280;7846;48.830;9.116;2023-03-03T06:03:42;98105.72;;;7.00;59.76
15489;BME280;7846;48.830;9.116;2023-03-03T06:06:07;98105.13;;;6.97;60.10
15489;BME280;7846;48.830;9.116;2023-03-03T06:08:34;98096.47;;;6.96;60.40
15489;BME280;7846;48.830;9.116;2023-03-03T06:11:00;98110.25;;;6.98;59.66
15489;BME280;7846;48.830;9.116;2023-03-03T06:13:26;98110.38;;;7.18;59.02
15489;BME280;7846;48.830;9.116;2023-03-03T06:15:51;98109.31;;;7.20;59.19
15489;BME280;7846;48.830;9.116;2023-03-03T06:18:18;98110.00;;;7.01;59.94
15489;BME280;7846;48.830;9.116;2023-03-03T06:20:43;98112.50;;;7.03;59.95
15489;BME280;7846;48.830;9.116;2023-03-03T06:23:09;98110.78;;;7.13;59.67
15489;BME280;7846;48.830;9.116;2023-03-03T06:25:37;98113.81;;;7.18;59.53
15489;BME280;7846;48.830;9.116;2023-03-03T06:28:02;98112.34;;;7.25;58.81
15489;BME280;7846;48.830;9.116;2023-03-03T06:30:28;98115.16;;;7.34;59.28
15489;BME280;7846;48.830;9.116;2023-03-03T06:32:54;98125.19;;;7.28;59.69
15489;BME280;7846;48.830;9.116;2023-03-03T06:35:20;98134.75;;;7.39;59.42
15489;BME280;7846;48.830;9.116;2023-03-03T06:37:45;98136.09;;;7.34;59.26
15489;BME280;7846;48.830;9.116;2023-03-03T06:40:11;98130.50;;;7.38;59.03
15489;BME280;7846;48.830;9.116;2023-03-03T06:42:36;98142.22;;;7.23;58.57
15489;BME280;7846;48.830;9.116;2023-03-03T06:45:02;98135.41;;;7.32;57.89
15489;BME280;7846;48.830;9.116;2023-03-03T06:47:27;98131.75;;;7.44;57.81
15489;BME280;7846;48.830;9.116;2023-03-03T06:49:53;98136.72;;;7.47;58.28
15489;BME280;7846;48.830;9.116;2023-03-03T06:52:22;98134.25;;;7.45;57.74
15489;BME280;7846;48.830;9.116;2023-03-03T06:54:48;98145.38;;;7.17;58.75
15489;BME280;7846;48.830;9.116;2023-03-03T06:57:29;98138.69;;;7.55;57.44
15489;BME280;7846;48.830;9.116;2023-03-03T07:02:41;98149.19;;;7.55;57.51
15489;BME280;7846;48.830;9.116;2023-03-03T07:05:14;98145.41;;;7.78;58.00
15489;BME280;7846;48.830;9.116;2023-03-03T07:07:40;98147.28;;;7.36;57.93
15489;BME280;7846;48.830;9.116;2023-03-03T07:10:15;98155.22;;;7.45;57.94
15489;BME280;7846;48.830;9.116;2023-03-03T07:12:42;98155.56;;;7.62;57.03
15489;BME280;7846;48.830;9.116;2023-03-03T07:15:14;98157.19;;;7.53;58.18
15489;BME280;7846;48.830;9.116;2023-03-03T07:17:43;98153.03;;;7.50;56.55
15489;BME280;7846;48.830;9.116;2023-03-03T07:20:35;98159.16;;;7.40;57.23
15489;BME280;7846;48.830;9.116;2023-03-03T07:23:25;98152.03;;;7.42;56.80
15489;BME280;7846;48.830;9.116;2023-03-03T07:25:51;98158.84;;;7.64;56.06
15489;BME280;7846;48.830;9.116;2023-03-03T07:28:26;98153.28;;;7.78;55.75
15489;BME280;7846;48.830;9.116;2023-03-03T07:30:54;98154.78;;;8.11;54.84
15489;BME280;7846;48.830;9.116;2023-03-03T07:35:53;98160.88;;;7.81;54.68
15489;BME280;7846;48.830;9.116;2023-03-03T07:38:30;98174.16;;;7.89;55.25
15489;BME280;7846;48.830;9.116;2023-03-03T07:41:00;98170.94;;;7.76;54.75
15489;BME280;7846;48.830;9.116;2023-03-03T07:43:42;98166.34;;;7.99;54.60
15489;BME280;7846;48.830;9.116;2023-03-03T07:48:43;98175.03;;;7.69;53.67
15489;BME280;7846;48.830;9.116;2023-03-03T07:51:15;98169.84;;;8.19;53.13
15489;BME280;7846;48.830;9.116;2023-03-03T07:53:43;98173.28;;;8.10;52.86
15489;BME280;7846;48.830;9.116;2023-03-03T07:56:25;98188.13;;;7.69;54.04
15489;BME280;7846;48.830;9.116;2023-03-03T07:58:51;98182.22;;;7.46;53.86
15489;BME280;7846;48.830;9.116;2023-03-03T08:04:18;98196.13;;;7.05;54.18
15489;BME280;7846;48.830;9.116;2023-03-03T08:09:35;98195.31;;;7.46;54.62
15489;BME280;7846;48.830;9.116;2023-03-03T08:14:35;98198.09;;;7.75;53.84
15489;BME280;7846;48.830;9.116;2023-03-03T08:17:01;98195.78;;;7.82;53.67
15489;BME280;7846;48.830;9.116;2023-03-03T08:19:32;98192.75;;;8.17;52.94
15489;BME280;7846;48.830;9.116;2023-03-03T08:22:02;98186.44;;;8.19;53.24
15489;BME280;7846;48.830;9.116;2023-03-03T08:24:33;98186.81;;;8.45;51.99
15489;BME280;7846;48.830;9.116;2023-03-03T08:27:00;98195.63;;;8.44;52.12
15489;BME280;7846;48.830;9.116;2023-03-03T08:29:26;98191.53;;;8.71;51.87
15489;BME280;7846;48.830;9.116;2023-03-03T08:31:51;98191.34;;;7.82;52.32
15489;BME280;7846;48.830;9.116;2023-03-03T08:34:19;98189.16;;;8.58;52.06
15489;BME280;7846;48.830;9.116;2023-03-03T08:36:46;98191.97;;;8.76;51.57
15489;BME280;7846;48.830;9.116;2023-03-03T08:39:11;98188.91;;;8.61;51.29
15489;BME280;7846;48.830;9.116;2023-03-03T08:41:37;98184.19;;;8.55;51.26
15489;BME280;7846;48.830;9.116;2023-03-03T08:44:04;98190.00;;;8.78;50.97
15489;BME280;7846;48.830;9.116;2023-03-03T08:46:30;98193.16;;;8.53;51.47
15489;BME280;7846;48.830;9.116;2023-03-03T08:48:55;98184.50;;;8.81;50.66
15489;BME280;7846;48.830;9.116;2023-03-03T08:51:20;98190.75;;;8.90;51.06
15489;BME280;7846;48.830;9.116;2023-03-03T08:53:46;98190.03;;;8.88;51.23
15489;BME280;7846;48.830;9.116;2023-03-03T08:56:12;98193.78;;;8.95;50.48
15489;BME280;7846;48.830;9.116;2023-03-03T08:58:37;98192.09;;;8.65;51.31
15489;BME280;7846;48.830;9.116;2023-03-03T09:01:07;98198.19;;;8.94;51.20
15489;BME280;7846;48.830;9.116;2023-03-03T09:03:32;98205.50;;;9.10;50.45
15489;BME280;7846;48.830;9.116;2023-03-03T09:05:59;98205.53;;;9.20;50.29
15489;BME280;7846;48.830;9.116;2023-03-03T09:08:25;98208.22;;;9.67;48.75
15489;BME280;7846;48.830;9.116;2023-03-03T09:10:51;98216.28;;;9.36;49.40
15489;BME280;7846;48.830;9.116;2023-03-03T09:13:17;98215.38;;;9.75;49.04
15489;BME280;7846;48.830;9.116;2023-03-03T09:15:44;98210.09;;;9.84;48.74
15489;BME280;7846;48.830;9.116;2023-03-03T09:20:53;98223.72;;;10.45;47.37
15489;BME280;7846;48.830;9.116;2023-03-03T09:23:24;98225.84;;;10.69;47.34
15489;BME280;7846;48.830;9.116;2023-03-03T09:25:53;98227.84;;;10.75;46.67
15489;BME280;7846;48.830;9.116;2023-03-03T09:28:27;98229.44;;;10.03;48.28
15489;BME280;7846;48.830;9.116;2023-03-03T09:30:57;98224.84;;;10.70;47.92
15489;BME280;7846;48.830;9.116;2023-03-03T09:33:43;98233.06;;;10.84;46.79
15489;BME280;7846;48.830;9.116;2023-03-03T09:36:30;98235.00;;;10.64;47.73
15489;BME280;7846;48.830;9.116;2023-03-03T09:39:00;98231.78;;;10.06;48.70
15489;BME280;7846;48.830;9.116;2023-03-03T09:55:49;98219.13;;;10.74;47.92
15489;BME280;7846;48.830;9.116;2023-03-03T09:58:45;98224.75;;;10.61;48.16
15489;BME280;7846;48.830;9.116;2023-03-03T10:01:39;98226.56;;;10.61;47.88
15489;BME280;7846;48.830;9.116;2023-03-03T10:07:26;98231.13;;;11.22;47.19
15489;BME280;7846;48.830;9.116;2023-03-03T10:13:02;98236.34;;;11.32;48.24
15489;BME280;7846;48.830;9.116;2023-03-03T10:15:46;98234.81;;;11.91;46.03
15489;BME280;7846;48.830;9.116;2023-03-03T10:18:21;98242.13;;;11.35;47.42
15489;BME280;7846;48.830;9.116;2023-03-03T10:20:59;98240.63;;;11.33;47.78
15489;BME280;7846;48.830;9.116;2023-03-03T10:23:51;98236.84;;;11.18;47.29
15489;BME280;7846;48.830;9.116;2023-03-03T10:27:06;98235.19;;;11.34;46.90
15489;BME280;7846;48.830;9.116;2023-03-03T10:29:43;98241.19;;;11.45;46.98
15489;BME280;7846;48.830;9.116;2023-03-03T10:35:05;98233.41;;;12.05;47.06
15489;BME280;7846;48.830;9.116;2023-03-03T10:37:59;98233.97;;;12.51;45.47
15489;BME280;7846;48.830;9.116;2023-03-03T10:43:48;98231.41;;;11.37;47.69
15489;BME280;7846;48.830;9.116;2023-03-03T10:46:28;98236.25;;;12.46;45.26
15489;BME280;7846;48.830;9.116;2023-03-03T10:49:13;98238.84;;;12.80;44.54
15489;BME280;7846;48.830;9.116;2023-03-03T10:51:58;98222.53;;;12.93;44.25
15489;BME280;7846;48.830;9.116;2023-03-03T10:54:54;98226.25;;;11.71;44.77
15489;BME280;7846;48.830;9.116;2023-03-03T11:00:46;98230.06;;;11.51;45.70
15489;BME280;7846;48.830;9.116;2023-03-03T11:03:54;98221.56;;;12.43;45.09
15489;BME280;7846;48.830;9.116;2023-03-03T11:07:03;98228.94;;;11.79;45.05
15489;BME280;7846;48.830;9.116;2023-03-03T11:09:43;98230.38;;;11.74;46.35
15489;BME280;7846;48.830;9.116;2023-03-03T11:12:33;98230.09;;;12.03;45.75
15489;BME280;7846;48.830;9.116;2023-03-03T11:20:44;98237.44;;;12.17;44.82
15489;BME280;7846;48.830;9.116;2023-03-03T11:23:20;98240.75;;;12.19;44.59
15489;BME280;7846;48.830;9.116;2023-03-03T11:28:43;98245.66;;;12.99;43.64
15489;BME280;7846;48.830;9.116;2023-03-03T11:31:23;98253.91;;;11.85;44.30
15489;BME280;7846;48.830;9.116;2023-03-03T11:34:00;98243.94;;;11.35;44.96
15489;BME280;7846;48.830;9.116;2023-03-03T11:36:38;98245.22;;;11.13;45.27
15489;BME280;7846;48.830;9.116;2023-03-03T11:39:15;98239.16;;;11.56;44.26
15489;BME280;7846;48.830;9.116;2023-03-03T11:44:37;98235.88;;;11.80;45.47
15489;BME280;7846;48.830;9.116;2023-03-03T11:47:36;98234.53;;;11.32;45.45
15489;BME280;7846;48.830;9.116;2023-03-03T11:50:09;98218.94;;;12.43;44.34
15489;BME280;7846;48.830;9.116;2023-03-03T11:52:51;98217.94;;;12.44;43.78
15489;BME280;7846;48.830;9.116;2023-03-03T11:55:32;98221.78;;;12.58;43.61
15489;BME280;7846;48.830;9.116;2023-03-03T11:58:12;98218.56;;;12.89;42.68
15489;BME280;7846;48.830;9.116;2023-03-03T12:00:45;98210.16;;;13.01;41.72
15489;BME280;7846;48.830;9.116;2023-03-03T12:08:56;98197.00;;;13.26;42.31
15489;BME280;7846;48.830;9.116;2023-03-03T12:14:27;98194.53;;;14.21;40.58
15489;BME280;7846;48.830;9.116;2023-03-03T12:17:00;98191.91;;;12.57;43.09
15489;BME280;7846;48.830;9.116;2023-03-03T12:25:06;98198.31;;;13.63;41.92
15489;BME280;7846;48.830;9.116;2023-03-03T12:27:39;98185.38;;;15.02;40.04
15489;BME280;7846;48.830;9.116;2023-03-03T12:30:24;98193.47;;;14.77;38.99
15489;BME280;7846;48.830;9.116;2023-03-03T12:35:30;98187.34;;;13.82;40.20
15489;BME280;7846;48.830;9.116;2023-03-03T12:41:05;98192.91;;;14.12;40.18
15489;BME280;7846;48.830;9.116;2023-03-03T12:43:54;98186.44;;;13.26;40.96
15489;BME280;7846;48.830;9.116;2023-03-03T12:46:27;98184.28;;;12.46;43.51
15489;BME280;7846;48.830;9.116;2023-03-03T12:48:56;98184.78;;;13.25;41.31
15489;BME280;7846;48.830;9.116;2023-03-03T12:54:37;98183.06;;;14.37;39.58
15489;BME280;7846;48.830;9.116;2023-03-03T12:57:25;98180.06;;;13.92;40.66
15489;BME280;7846;48.830;9.116;2023-03-03T13:01:10;98179.44;;;14.29;39.26
15489;BME280;7846;48.830;9.116;2023-03-03T13:03:28;98187.13;;;15.10;37.84
15489;BME280;7846;48.830;9.116;2023-03-03T13:06:06;98178.72;;;14.75;39.18
15489;BME280;7846;48.830;9.116;2023-03-03T13:11:52;98178.19;;;14.48;38.90
15489;BME280;7846;48.830;9.116;2023-03-03T13:14:27;98186.31;;;13.99;39.33
15489;BME280;7846;48.830;9.116;2023-03-03T13:19:44;98179.88;;;15.64;37.30
15489;BME280;7846;48.830;9.116;2023-03-03T13:27:27;98173.66;;;16.46;37.43
15489;BME280;7846;48.830;9.116;2023-03-03T13:30:03;98172.25;;;16.14;36.56
15489;BME280;7846;48.830;9.116;2023-03-03T13:37:55;98169.13;;;16.40;36.82
15489;BME280;7846;48.830;9.116;2023-03-03T13:40:25;98170.13;;;15.42;38.05
15489;BME280;7846;48.830;9.116;2023-03-03T13:43:02;98167.22;;;16.19;36.59
15489;BME280;7846;48.830;9.116;2023-03-03T13:45:49;98170.16;;;16.09;36.72
15489;BME280;7846;48.830;9.116;2023-03-03T13:48:33;98152.44;;;16.31;36.77
15489;BME280;7846;48.830;9.116;2023-03-03T13:54:15;98162.03;;;15.20;38.26
15489;BME280;7846;48.830;9.116;2023-03-03T13:59:46;98161.78;;;15.83;37.28
15489;BME280;7846;48.830;9.116;2023-03-03T14:05:46;98142.91;;;16.37;36.13
15489;BME280;7846;48.830;9.116;2023-03-03T14:11:18;98144.59;;;18.01;34.17
15489;BME280;7846;48.830;9.116;2023-03-03T14:14:23;98142.56;;;16.98;35.39
15489;BME280;7846;48.830;9.116;2023-03-03T14:19:43;98135.72;;;17.59;35.03
15489;BME280;7846;48.830;9.116;2023-03-03T14:22:17;98139.84;;;17.12;35.10
15489;BME280;7846;48.830;9.116;2023-03-03T14:24:58;98140.00;;;15.35;38.29
15489;BME280;7846;48.830;9.116;2023-03-03T14:27:26;98132.56;;;17.49;35.64
15489;BME280;7846;48.830;9.116;2023-03-03T14:29:52;98136.63;;;17.45;35.26
15489;BME280;7846;48.830;9.116;2023-03-03T14:32:25;98135.06;;;16.29;36.93
15489;BME280;7846;48.830;9.116;2023-03-03T14:35:00;98133.78;;;18.09;35.70
15489;BME280;7846;48.830;9.116;2023-03-03T14:37:49;98136.25;;;16.99;35.89
15489;BME280;7846;48.830;9.116;2023-03-03T14:40:20;98127.97;;;16.51;36.21
15489;BME280;7846;48.830;9.116;2023-03-03T14:45:35;98131.97;;;17.75;34.60
15489;BME280;7846;48.830;9.116;2023-03-03T14:50:40;98132.22;;;16.66;36.05
15489;BME280;7846;48.830;9.116;2023-03-03T14:55:51;98133.50;;;17.63;35.03
15489;BME280;7846;48.830;9.116;2023-03-03T14:58:39;98119.41;;;17.69;35.46
15489;BME280;7846;48.830;9.116;2023-03-03T15:01:35;98127.63;;;16.60;35.71
15489;BME280;7846;48.830;9.116;2023-03-03T15:04:06;98131.91;;;18.45;33.90
15489;BME280;7846;48.830;9.116;2023-03-03T15:06:49;98126.53;;;19.26;32.85
15489;BME280;7846;48.830;9.116;2023-03-03T15:09:25;98124.25;;;16.15;35.99
15489;BME280;7846;48.830;9.116;2023-03-03T15:11:54;98123.34;;;16.96;35.92
15489;BME280;7846;48.830;9.116;2023-03-03T15:16:52;98117.97;;;18.49;33.78
15489;BME280;7846;48.830;9.116;2023-03-03T15:24:40;98111.81;;;18.01;34.26
15489;BME280;7846;48.830;9.116;2023-03-03T15:27:34;98108.56;;;17.71;35.38
15489;BME280;7846;48.830;9.116;2023-03-03T15:30:24;98107.31;;;17.10;35.75
15489;BME280;7846;48.830;9.116;2023-03-03T15:32:53;98102.41;;;17.42;35.38
15489;BME280;7846;48.830;9.116;2023-03-03T15:35:51;98099.28;;;17.95;34.18
15489;BME280;7846;48.830;9.116;2023-03-03T15:38:29;98107.81;;;16.78;36.23
15489;BME280;7846;48.830;9.116;2023-03-03T15:44:27;98103.28;;;17.49;34.79
15489;BME280;7846;48.830;9.116;2023-03-03T15:55:19;98103.59;;;15.96;37.79
15489;BME280;7846;48.830;9.116;2023-03-03T16:01:07;98108.53;;;15.99;37.73
15489;BME280;7846;48.830;9.116;2023-03-03T16:03:43;98106.94;;;16.92;36.20
15489;BME280;7846;48.830;9.116;2023-03-03T16:06:53;98113.13;;;15.00;38.86
15489;BME280;7846;48.830;9.116;2023-03-03T16:17:38;98112.13;;;15.01;39.44
15489;BME280;7846;48.830;9.116;2023-03-03T16:28:11;98136.00;;;14.47;40.30
15489;BME280;7846;48.830;9.116;2023-03-03T16:31:10;98121.97;;;14.69;40.34
15489;BME280;7846;48.830;9.116;2023-03-03T16:37:04;98132.38;;;14.40;40.25
15489;BME280;7846;48.830;9.116;2023-03-03T16:40:34;98147.03;;;13.64;41.63
15489;BME280;7846;48.830;9.116;2023-03-03T16:42:39;98143.72;;;13.78;41.34
15489;BME280;7846;48.830;9.116;2023-03-03T16:45:26;98146.91;;;13.08;42.47